sensor_id;sensor_type;location;lat;lon;timestamp;temperature;humidity
43414;DHT22;73638;49.676;8.606;2024-03-07T00:04:48;9.1489;64.8386
43414;DHT22;73638;49.676;8.606;2024-03-07T00:09:55;8.7644;64.8142
43414;DHT22;73638;49.676;8.606;2024-03-07T00:15:02;8.743;65.5024
43414;DHT22;73638;49.676;8.606;2024-03-07T00:20:09;8.6442;66.006
43414;DHT22;73638;49.676;8.606;2024-03-07T00:25:15;8.5267;66.1418
43414;DHT22;73638;49.676;8.606;2024-03-07T00:30:21;8.3238;66.215
43414;DHT22;73638;49.676;8.606;2024-03-07T00:35:28;8.3104;66.5217
43414;DHT22;73638;49.676;8.606;2024-03-07T00:40:35;8.2464;66.5095
43414;DHT22;73638;49.676;8.606;2024-03-07T00:45:41;8.233;66.5461
43414;DHT22;73638;49.676;8.606;2024-03-07T00:50:48;8.233;66.1662
43414;DHT22;73638;49.676;8.606;2024-03-07T00:55:55;8.0034;66.3829
43414;DHT22;73638;49.676;8.606;2024-03-07T01:01:01;7.8058;66.2226
43414;DHT22;73638;49.676;8.606;2024-03-07T01:06:08;7.7096;66.1372
43414;DHT22;73638;49.676;8.606;2024-03-07T01:11:14;7.7096;66.2974
43414;DHT22;73638;49.676;8.606;2024-03-07T01:16:21;7.7844;67.2557
43414;DHT22;73638;49.676;8.606;2024-03-07T01:21:27;7.7443;67.2068
43414;DHT22;73638;49.676;8.606;2024-03-07T01:26:35;7.715;67.4022
43414;DHT22;73638;49.676;8.606;2024-03-07T01:31:41;7.7497;67.4022
43414;DHT22;73638;49.676;8.606;2024-03-07T01:36:48;7.6322;67.4525
43414;DHT22;73638;49.676;8.606;2024-03-07T01:41:54;7.6108;67.3899
43414;DHT22;73638;49.676;8.606;2024-03-07T01:47:01;7.5628;67.4647
43414;DHT22;73638;49.676;8.606;2024-03-07T01:52:09;7.3518;67.7226
43414;DHT22;73638;49.676;8.606;2024-03-07T01:57:14;7.4079;67.6493
43414;DHT22;73638;49.676;8.606;2024-03-07T02:02:21;7.3037;67.686
43414;DHT22;73638;49.676;8.606;2024-03-07T02:07:33;7.2129;67.1199
43414;DHT22;73638;49.676;8.606;2024-03-07T02:12:33;6.9486;66.6651
43414;DHT22;73638;49.676;8.606;2024-03-07T02:17:40;6.7456;67.4464
43414;DHT22;73638;49.676;8.606;2024-03-07T02:22:47;6.8925;68.0659
43414;DHT22;73638;49.676;8.606;2024-03-07T02:27:53;6.7163;68.2826
43414;DHT22;73638;49.676;8.606;2024-03-07T02:33:00;6.7723;68.4047
43414;DHT22;73638;49.676;8.606;2024-03-07T02:38:06;6.7109;68.6015
43414;DHT22;73638;49.676;8.606;2024-03-07T02:43:14;6.564;68.6137
43414;DHT22;73638;49.676;8.606;2024-03-07T02:48:20;6.4786;68.3803
43414;DHT22;73638;49.676;8.606;2024-03-07T02:53:26;6.4733;68.8716
43414;DHT22;73638;49.676;8.606;2024-03-07T02:58:33;6.3317;69.0074
43414;DHT22;73638;49.676;8.606;2024-03-07T03:03:39;6.2917;68.9097
43414;DHT22;73638;49.676;8.606;2024-03-07T03:08:51;6.4038;68.8106
43414;DHT22;73638;49.676;8.606;2024-03-07T03:13:52;6.1448;68.6137
43414;DHT22;73638;49.676;8.606;2024-03-07T03:18:59;6.313;68.159
43414;DHT22;73638;49.676;8.606;2024-03-07T03:24:05;6.0113;67.7165
43414;DHT22;73638;49.676;8.606;2024-03-07T03:29:12;6.054;67.7287
43414;DHT22;73638;49.676;8.606;2024-03-07T03:34:18;5.8164;67.8157
43414;DHT22;73638;49.676;8.606;2024-03-07T03:39:25;5.9552;68.3558
43414;DHT22;73638;49.676;8.606;2024-03-07T03:44:32;5.6695;68.5039
43414;DHT22;73638;49.676;8.606;2024-03-07T03:49:43;5.8858;68.5649
43414;DHT22;73638;49.676;8.606;2024-03-07T03:54:45;5.6348;68.3803
43414;DHT22;73638;49.676;8.606;2024-03-07T03:59:51;5.8297;68.5771
43414;DHT22;73638;49.676;8.606;2024-03-07T04:04:58;5.6828;68.6137
43414;DHT22;73638;49.676;8.606;2024-03-07T04:10:06;5.6615;67.7546
43414;DHT22;73638;49.676;8.606;2024-03-07T04:15:13;5.4959;67.509
43414;DHT22;73638;49.676;8.606;2024-03-07T04:20:17;5.3891;67.2755
43414;DHT22;73638;49.676;8.606;2024-03-07T04:25:24;5.3971;67.2877
43414;DHT22;73638;49.676;8.606;2024-03-07T04:30:30;5.082;67.0542
43414;DHT22;73638;49.676;8.606;2024-03-07T04:35:37;5.2369;66.9566
43414;DHT22;73638;49.676;8.606;2024-03-07T04:40:43;5.1595;67.0298
43414;DHT22;73638;49.676;8.606;2024-03-07T04:45:50;4.8096;67.1275
43414;DHT22;73638;49.676;8.606;2024-03-07T04:50:56;4.9565;67.7424
43414;DHT22;73638;49.676;8.606;2024-03-07T04:56:03;5.0553;68.3085
43414;DHT22;73638;49.676;8.606;2024-03-07T05:01:09;4.7829;68.4306
43414;DHT22;73638;49.676;8.606;2024-03-07T05:06:16;4.831;68.5039
43414;DHT22;73638;49.676;8.606;2024-03-07T05:11:22;4.9992;68.6152
43414;DHT22;73638;49.676;8.606;2024-03-07T05:16:30;4.9645;68.7007
43414;DHT22;73638;49.676;8.606;2024-03-07T05:21:35;4.8871;68.7617
43414;DHT22;73638;49.676;8.606;2024-03-07T05:26:42;4.8096;68.8853
43414;DHT22;73638;49.676;8.606;2024-03-07T05:31:49;4.7135;68.8365
43414;DHT22;73638;49.676;8.606;2024-03-07T05:36:55;4.9004;69.0455
43414;DHT22;73638;49.676;8.606;2024-03-07T05:42:02;4.9298;68.8121
43414;DHT22;73638;49.676;8.606;2024-03-07T05:47:09;4.8177;69.1188
43414;DHT22;73638;49.676;8.606;2024-03-07T05:52:14;4.7269;68.4306
43414;DHT22;73638;49.676;8.606;2024-03-07T05:57:21;4.8043;67.866
43414;DHT22;73638;49.676;8.606;2024-03-07T06:02:28;4.4892;67.4113
43414;DHT22;73638;49.676;8.606;2024-03-07T06:07:34;4.4198;67.9759
43414;DHT22;73638;49.676;8.606;2024-03-07T06:12:49;4.572;68.4062
43414;DHT22;73638;49.676;8.606;2024-03-07T06:17:48;4.572;68.8121
43414;DHT22;73638;49.676;8.606;2024-03-07T06:22:54;4.6708;68.922
43414;DHT22;73638;49.676;8.606;2024-03-07T06:28:01;4.6628;68.8853
43414;DHT22;73638;49.676;8.606;2024-03-07T06:33:08;4.9352;68.6641
43414;DHT22;73638;49.676;8.606;2024-03-07T06:38:14;4.9004;68.4794
43414;DHT22;73638;49.676;8.606;2024-03-07T06:43:21;4.9779;68.6519
43414;DHT22;73638;49.676;8.606;2024-03-07T06:48:27;4.9992;68.6519
43414;DHT22;73638;49.676;8.606;2024-03-07T06:53:34;5.1114;68.9586
43414;DHT22;73638;49.676;8.606;2024-03-07T06:58:40;5.2235;68.8731
43414;DHT22;73638;49.676;8.606;2024-03-07T07:03:47;5.4051;68.8975
43414;DHT22;73638;49.676;8.606;2024-03-07T07:08:54;5.5146;67.95
43414;DHT22;73638;49.676;8.606;2024-03-07T07:14:01;5.6481;67.4342
43414;DHT22;73638;49.676;8.606;2024-03-07T07:19:07;5.8377;66.9306
43414;DHT22;73638;49.676;8.606;2024-03-07T07:24:13;5.7389;66.3157
43414;DHT22;73638;49.676;8.606;2024-03-07T07:29:20;5.9552;66.6117
43414;DHT22;73638;49.676;8.606;2024-03-07T07:34:26;6.0967;66.07
43414;DHT22;73638;49.676;8.606;2024-03-07T07:39:33;6.1662;66.2913
43414;DHT22;73638;49.676;8.606;2024-03-07T07:44:40;6.3611;66.4637
43414;DHT22;73638;49.676;8.606;2024-03-07T07:49:47;6.313;66.7948
43414;DHT22;73638;49.676;8.606;2024-03-07T07:54:54;6.5427;66.5736
43414;DHT22;73638;49.676;8.606;2024-03-07T08:00:01;6.7857;66.4515
43414;DHT22;73638;49.676;8.606;2024-03-07T08:05:10;7.0527;66.1982
43414;DHT22;73638;49.676;8.606;2024-03-07T08:10:15;7.6028;65.658
43414;DHT22;73638;49.676;8.606;2024-03-07T08:15:21;7.9873;64.7608
43414;DHT22;73638;49.676;8.606;2024-03-07T08:20:28;8.4226;63.5111
43414;DHT22;73638;49.676;8.606;2024-03-07T08:25:34;8.5134;62.504
43414;DHT22;73638;49.676;8.606;2024-03-07T08:30:41;8.687;62.2339
43414;DHT22;73638;49.676;8.606;2024-03-07T08:35:48;8.8338;62.1225
43414;DHT22;73638;49.676;8.606;2024-03-07T08:40:55;8.946;61.0178
43414;DHT22;73638;49.676;8.606;2024-03-07T08:46:02;9.0021;59.6414
43414;DHT22;73638;49.676;8.606;2024-03-07T08:51:09;9.0982;59.9115
43414;DHT22;73638;49.676;8.606;2024-03-07T08:56:15;8.994;59.2111
43414;DHT22;73638;49.676;8.606;2024-03-07T09:01:22;8.986;58.6816
43414;DHT22;73638;49.676;8.606;2024-03-07T09:06:28;8.8205;58.8052
43414;DHT22;73638;49.676;8.606;2024-03-07T09:11:37;8.8685;58.436
43414;DHT22;73638;49.676;8.606;2024-03-07T09:16:44;8.946;58.8785
43414;DHT22;73638;49.676;8.606;2024-03-07T09:21:51;9.0928;59.0509
43414;DHT22;73638;49.676;8.606;2024-03-07T09:26:58;9.4347;57.8958
43414;DHT22;73638;49.676;8.606;2024-03-07T09:32:05;9.5174;57.5769
43414;DHT22;73638;49.676;8.606;2024-03-07T09:37:11;9.6857;56.8689
43414;DHT22;73638;49.676;8.606;2024-03-07T09:42:18;9.9928;56.3165
43414;DHT22;73638;49.676;8.606;2024-03-07T09:47:25;10.2518;56.611
43414;DHT22;73638;49.676;8.606;2024-03-07T09:52:32;10.4681;54.6822
43414;DHT22;73638;49.676;8.606;2024-03-07T09:57:39;10.4601;54.7555
43414;DHT22;73638;49.676;8.606;2024-03-07T10:02:47;10.8099;55.3582
43414;DHT22;73638;49.676;8.606;2024-03-07T10:07:53;10.922;55.2468
43414;DHT22;73638;49.676;8.606;2024-03-07T10:13:01;11.3119;54.8333
43414;DHT22;73638;49.676;8.606;2024-03-07T10:18:07;11.1944;54.7097
43414;DHT22;73638;49.676;8.606;2024-03-07T10:23:18;11.0342;54.3053
43414;DHT22;73638;49.676;8.606;2024-03-07T10:28:20;10.7618;54.8913
43414;DHT22;73638;49.676;8.606;2024-03-07T10:33:27;10.7057;55.05
43414;DHT22;73638;49.676;8.606;2024-03-07T10:38:34;10.7832;55.0378
43414;DHT22;73638;49.676;8.606;2024-03-07T10:43:42;11.117;54.4884
43414;DHT22;73638;49.676;8.606;2024-03-07T10:48:50;11.3279;54.1939
43414;DHT22;73638;49.676;8.606;2024-03-07T10:53:59;11.1383;54.3542
43414;DHT22;73638;49.676;8.606;2024-03-07T10:59:07;11.4321;53.2845
43414;DHT22;73638;49.676;8.606;2024-03-07T11:04:09;11.3626;52.6574
43414;DHT22;73638;49.676;8.606;2024-03-07T11:09:15;11.6403;53.0755
43414;DHT22;73638;49.676;8.606;2024-03-07T11:14:22;12.089;53.4936
43414;DHT22;73638;49.676;8.606;2024-03-07T11:19:31;12.2412;53.0877
43414;DHT22;73638;49.676;8.606;2024-03-07T11:24:36;12.3186;53.106
43414;DHT22;73638;49.676;8.606;2024-03-07T11:29:47;12.3453;53.1182
43414;DHT22;73638;49.676;8.606;2024-03-07T11:34:49;12.2065;53.9483
43414;DHT22;73638;49.676;8.606;2024-03-07T11:39:56;11.9982;53.1868
43414;DHT22;73638;49.676;8.606;2024-03-07T11:45:04;12.3453;53.4493
43414;DHT22;73638;49.676;8.606;2024-03-07T11:50:10;12.6257;53.1914
43414;DHT22;73638;49.676;8.606;2024-03-07T11:55:17;12.8901;53.5607
43414;DHT22;73638;49.676;8.606;2024-03-07T12:00:24;13.2906;52.9213
43414;DHT22;73638;49.676;8.606;2024-03-07T12:05:32;13.5897;51.7784
43414;DHT22;73638;49.676;8.606;2024-03-07T12:10:38;13.6725;50.9957
43414;DHT22;73638;49.676;8.606;2024-03-07T12:15:44;13.6378;50.7958
43414;DHT22;73638;49.676;8.606;2024-03-07T12:20:51;13.5817;51.6182
43414;DHT22;73638;49.676;8.606;2024-03-07T12:25:59;13.5897;50.6722
43414;DHT22;73638;49.676;8.606;2024-03-07T12:31:05;13.563;51.1635
43414;DHT22;73638;49.676;8.606;2024-03-07T12:36:12;13.5283;51.2627
43414;DHT22;73638;49.676;8.606;2024-03-07T12:41:22;13.4081;51.1269
43414;DHT22;73638;49.676;8.606;2024-03-07T12:46:25;13.4375;51.1269
43414;DHT22;73638;49.676;8.606;2024-03-07T12:51:32;13.5683;50.8202
43414;DHT22;73638;49.676;8.606;2024-03-07T12:56:39;13.6938;50.9468
43414;DHT22;73638;49.676;8.606;2024-03-07T13:01:46;13.7018;50.1976
43414;DHT22;73638;49.676;8.606;2024-03-07T13:06:53;13.5763;50.2297
43414;DHT22;73638;49.676;8.606;2024-03-07T13:12:00;13.6938;49.9641
43414;DHT22;73638;49.676;8.606;2024-03-07T13:17:07;13.9261;49.8161
43414;DHT22;73638;49.676;8.606;2024-03-07T13:22:13;13.9181;49.2271
43414;DHT22;73638;49.676;8.606;2024-03-07T13:27:20;14.0009;48.9067
43414;DHT22;73638;49.676;8.606;2024-03-07T13:32:27;13.9181;49.4728
43414;DHT22;73638;49.676;8.606;2024-03-07T13:37:34;13.8407;48.7846
43414;DHT22;73638;49.676;8.606;2024-03-07T13:42:41;13.8407;49.7673
43414;DHT22;73638;49.676;8.606;2024-03-07T13:47:48;13.9048;49.4224
43414;DHT22;73638;49.676;8.606;2024-03-07T13:52:55;13.8754;49.7307
43414;DHT22;73638;49.676;8.606;2024-03-07T13:58:06;13.9315;49.546
43414;DHT22;73638;49.676;8.606;2024-03-07T14:03:22;14.0517;49.2149
43414;DHT22;73638;49.676;8.606;2024-03-07T14:08:28;13.8193;48.8823
43414;DHT22;73638;49.676;8.606;2024-03-07T14:13:35;13.8006;49.485
43414;DHT22;73638;49.676;8.606;2024-03-07T14:19:08;13.7446;49.4224
43414;DHT22;73638;49.676;8.606;2024-03-07T14:23:44;13.7099;49.3492
43414;DHT22;73638;49.676;8.606;2024-03-07T14:28:51;13.6885;49.1524
43414;DHT22;73638;49.676;8.606;2024-03-07T14:34:01;13.5977;49.395
43414;DHT22;73638;49.676;8.606;2024-03-07T14:38:57;13.5203;49.6406
43414;DHT22;73638;49.676;8.606;2024-03-07T14:44:02;13.4081;50.0832
43414;DHT22;73638;49.676;8.606;2024-03-07T14:49:10;13.4081;50.4891
43414;DHT22;73638;49.676;8.606;2024-03-07T14:54:16;13.3867;50.3777
43414;DHT22;73638;49.676;8.606;2024-03-07T14:59:23;13.2826;50.0465
43414;DHT22;73638;49.676;8.606;2024-03-07T15:04:31;13.2265;50.28
43414;DHT22;73638;49.676;8.606;2024-03-07T15:09:36;13.2345;50.2052
43414;DHT22;73638;49.676;8.606;2024-03-07T15:14:46;13.1357;50.1808
43414;DHT22;73638;49.676;8.606;2024-03-07T15:19:49;13.101;50.6233
43414;DHT22;73638;49.676;8.606;2024-03-07T15:24:57;13.0743;50.5745
43414;DHT22;73638;49.676;8.606;2024-03-07T15:30:04;13.0877;50.6722
43414;DHT22;73638;49.676;8.606;2024-03-07T15:35:10;12.9622;50.5501
43414;DHT22;73638;49.676;8.606;2024-03-07T15:40:16;12.9461;50.8202
43414;DHT22;73638;49.676;8.606;2024-03-07T15:45:24;12.8153;50.956
43414;DHT22;73638;49.676;8.606;2024-03-07T15:50:30;12.7939;50.7836
43414;DHT22;73638;49.676;8.606;2024-03-07T15:55:37;12.8153;50.808
43414;DHT22;73638;49.676;8.606;2024-03-07T16:00:43;12.6684;50.9178
43414;DHT22;73638;49.676;8.606;2024-03-07T16:05:50;12.5216;51.0658
43414;DHT22;73638;49.676;8.606;2024-03-07T16:10:56;12.4094;50.956
43414;DHT22;73638;49.676;8.606;2024-03-07T16:16:04;12.2972;51.1711
43414;DHT22;73638;49.676;8.606;2024-03-07T16:21:10;12.3453;50.8446
43414;DHT22;73638;49.676;8.606;2024-03-07T16:26:17;12.2412;51.2947
43414;DHT22;73638;49.676;8.606;2024-03-07T16:31:23;12.1851;51.3924
43414;DHT22;73638;49.676;8.606;2024-03-07T16:36:30;12.0729;51.2566
43414;DHT22;73638;49.676;8.606;2024-03-07T16:41:37;11.9127;51.6136
43414;DHT22;73638;49.676;8.606;2024-03-07T16:46:44;11.7872;51.7113
43414;DHT22;73638;49.676;8.606;2024-03-07T16:51:50;11.7819;52.0439
43414;DHT22;73638;49.676;8.606;2024-03-07T16:56:57;11.6564;51.8959
43414;DHT22;73638;49.676;8.606;2024-03-07T17:02:04;11.5923;52.2408
43414;DHT22;73638;49.676;8.606;2024-03-07T17:07:10;11.4801;52.0317
43414;DHT22;73638;49.676;8.606;2024-03-07T17:12:17;11.4107;52.2286
43414;DHT22;73638;49.676;8.606;2024-03-07T17:17:24;11.3066;52.0439
43414;DHT22;73638;49.676;8.606;2024-03-07T17:22:31;11.2638;52.0562
43414;DHT22;73638;49.676;8.606;2024-03-07T17:27:38;11.165;52.2652
43414;DHT22;73638;49.676;8.606;2024-03-07T17:32:45;11.117;52.2896
43414;DHT22;73638;49.676;8.606;2024-03-07T17:37:51;10.9648;52.3018
43414;DHT22;73638;49.676;8.606;2024-03-07T17:42:58;10.9648;52.5963
43414;DHT22;73638;49.676;8.606;2024-03-07T17:48:05;10.9834;52.6711
43414;DHT22;73638;49.676;8.606;2024-03-07T17:53:13;11.0262;52.1904
43414;DHT22;73638;49.676;8.606;2024-03-07T17:58:18;10.9648;52.4376
43414;DHT22;73638;49.676;8.606;2024-03-07T18:03:24;10.9701;52.4117
43414;DHT22;73638;49.676;8.606;2024-03-07T18:08:46;10.9434;52.5353
43414;DHT22;73638;49.676;8.606;2024-03-07T18:13:38;10.922;52.8267
43414;DHT22;73638;49.676;8.606;2024-03-07T18:18:45;10.9567;52.3262
43414;DHT22;73638;49.676;8.606;2024-03-07T18:23:51;10.8526;52.6543
43414;DHT22;73638;49.676;8.606;2024-03-07T18:28:58;10.8019;52.6543
43414;DHT22;73638;49.676;8.606;2024-03-07T18:34:04;10.8179;52.8511
43414;DHT22;73638;49.676;8.606;2024-03-07T18:39:11;10.7271;52.9488
43414;DHT22;73638;49.676;8.606;2024-03-07T18:44:17;10.671;52.8511
43414;DHT22;73638;49.676;8.606;2024-03-07T18:49:24;10.671;52.9366
43414;DHT22;73638;49.676;8.606;2024-03-07T18:54:31;10.7752;52.6787
43414;DHT22;73638;49.676;8.606;2024-03-07T18:59:38;10.7191;52.5185
43414;DHT22;73638;49.676;8.606;2024-03-07T19:04:45;10.7191;52.7276
43414;DHT22;73638;49.676;8.606;2024-03-07T19:09:50;10.6977;52.6055
43414;DHT22;73638;49.676;8.606;2024-03-07T19:14:57;10.6844;52.3354
43414;DHT22;73638;49.676;8.606;2024-03-07T19:20:05;10.7111;52.4208
43414;DHT22;73638;49.676;8.606;2024-03-07T19:25:12;10.6844;52.5185
43414;DHT22;73638;49.676;8.606;2024-03-07T19:30:19;10.6363;52.5063
43414;DHT22;73638;49.676;8.606;2024-03-07T19:35:24;10.5856;51.9783
43414;DHT22;73638;49.676;8.606;2024-03-07T19:40:30;10.5241;52.4086
43414;DHT22;73638;49.676;8.606;2024-03-07T19:45:38;10.5642;52.2606
43414;DHT22;73638;49.676;8.606;2024-03-07T19:50:44;10.6149;52.3964
43414;DHT22;73638;49.676;8.606;2024-03-07T19:55:50;10.5589;52.3598
43414;DHT22;73638;49.676;8.606;2024-03-07T20:00:57;10.5642;52.5063
43414;DHT22;73638;49.676;8.606;2024-03-07T20:06:04;10.5509;52.2362
43414;DHT22;73638;49.676;8.606;2024-03-07T20:11:10;10.4734;52.6177
43414;DHT22;73638;49.676;8.606;2024-03-07T20:16:16;10.4894;52.6299
43414;DHT22;73638;49.676;8.606;2024-03-07T20:21:23;10.5642;52.7901
43414;DHT22;73638;49.676;8.606;2024-03-07T20:26:30;10.5375;52.3598
43414;DHT22;73638;49.676;8.606;2024-03-07T20:31:36;10.5375;52.7398
43414;DHT22;73638;49.676;8.606;2024-03-07T20:36:43;10.3826;52.8023
43414;DHT22;73638;49.676;8.606;2024-03-07T20:41:50;10.1957;53.0846
43414;DHT22;73638;49.676;8.606;2024-03-07T20:46:56;10.3479;52.7642
43414;DHT22;73638;49.676;8.606;2024-03-07T20:52:04;10.3693;52.7779
43414;DHT22;73638;49.676;8.606;2024-03-07T20:57:10;10.3479;52.9488
43414;DHT22;73638;49.676;8.606;2024-03-07T21:02:16;10.3078;52.9732
43414;DHT22;73638;49.676;8.606;2024-03-07T21:07:23;10.3212;53.0968
43414;DHT22;73638;49.676;8.606;2024-03-07T21:12:29;10.2785;52.9122
43414;DHT22;73638;49.676;8.606;2024-03-07T21:17:36;10.2918;52.961
43414;DHT22;73638;49.676;8.606;2024-03-07T21:22:44;10.1957;53.0358
43414;DHT22;73638;49.676;8.606;2024-03-07T21:27:49;10.2785;53.3303
43414;DHT22;73638;49.676;8.606;2024-03-07T21:32:56;10.2224;52.9854
43414;DHT22;73638;49.676;8.606;2024-03-07T21:38:02;10.0408;53.1456
43414;DHT22;73638;49.676;8.606;2024-03-07T21:43:08;9.966;53.0968
43414;DHT22;73638;49.676;8.606;2024-03-07T21:48:15;10.0488;53.4279
43414;DHT22;73638;49.676;8.606;2024-03-07T21:53:21;10.0061;53.2189
43414;DHT22;73638;49.676;8.606;2024-03-07T21:58:28;10.0355;53.0236
43414;DHT22;73638;49.676;8.606;2024-03-07T22:03:35;9.966;53.4157
43414;DHT22;73638;49.676;8.606;2024-03-07T22:08:41;9.9233;53.1334
43414;DHT22;73638;49.676;8.606;2024-03-07T22:13:48;9.91;53.3547
43414;DHT22;73638;49.676;8.606;2024-03-07T22:18:55;9.7684;53.0602
43414;DHT22;73638;49.676;8.606;2024-03-07T22:24:01;9.7551;53.257
43414;DHT22;73638;49.676;8.606;2024-03-07T22:29:08;9.5949;53.4035
43414;DHT22;73638;49.676;8.606;2024-03-07T22:34:14;9.5602;53.5836
43414;DHT22;73638;49.676;8.606;2024-03-07T22:39:21;9.4694;53.9025
43414;DHT22;73638;49.676;8.606;2024-03-07T22:44:27;9.2317;54.0383
43414;DHT22;73638;49.676;8.606;2024-03-07T22:49:34;8.9246;54.3694
43414;DHT22;73638;49.676;8.606;2024-03-07T22:54:40;8.8338;54.6151
43414;DHT22;73638;49.676;8.606;2024-03-07T22:59:47;8.9166;54.6395
43414;DHT22;73638;49.676;8.606;2024-03-07T23:04:54;8.8472;54.4427
43414;DHT22;73638;49.676;8.606;2024-03-07T23:10:00;8.8472;54.6151
43414;DHT22;73638;49.676;8.606;2024-03-07T23:15:08;8.6736;54.5907
43414;DHT22;73638;49.676;8.606;2024-03-07T23:20:14;8.743;54.7753
43414;DHT22;73638;49.676;8.606;2024-03-07T23:25:21;8.687;54.7875
43414;DHT22;73638;49.676;8.606;2024-03-07T23:30:28;8.7297;54.9096
43414;DHT22;73638;49.676;8.606;2024-03-07T23:35:34;8.6042;54.7265
43414;DHT22;73638;49.676;8.606;2024-03-07T23:40:40;8.4707;54.7509
43414;DHT22;73638;49.676;8.606;2024-03-07T23:45:47;8.3452;54.7005
43414;DHT22;73638;49.676;8.606;2024-03-07T23:50:54;8.3719;54.6883
43414;DHT22;73638;49.676;8.606;2024-03-07T23:56:00;8.2544;54.6761
